CTV3411 WIOO-WARR
Flight info
| Callsign | CTV3411 |
|---|---|
| Flight time | 1h 19m |
| Altitude | 37000 |
| Route | MASRI M635 SUMDI |
| Aircraft | A20N/M-SDE2E3FGHIRWXY/LB1 |
Departure
| Time | 2026-05-07 05:51 |
|---|---|
| Airport | Supadio International Airport (WIOO) |
Arrival
| Time | 2026-05-07 07:11 |
|---|---|
| Airport | Juanda International Airport (WARR) |
| Time | Latitude | Longitude | Altitude | Speed | Heading |
|---|---|---|---|---|---|
| 2026-05-07 05:26 | -0.14612 | 109.40345 | 15 ft | 0 kts | 68° |
| 2026-05-07 05:35 | -0.14617 | 109.40333 | 15 ft | 2 kts | 67° |
| 2026-05-07 05:35 | -0.14623 | 109.40319 | 14 ft | 1 kts | 68° |
| 2026-05-07 05:35 | -0.14628 | 109.40309 | 14 ft | 1 kts | 34° |
| 2026-05-07 05:35 | -0.14641 | 109.40306 | 14 ft | 0 kts | 341° |
| 2026-05-07 05:36 | -0.14652 | 109.40313 | 14 ft | 2 kts | 334° |
| 2026-05-07 05:36 | -0.14660 | 109.40316 | 14 ft | 1 kts | 339° |
| 2026-05-07 05:36 | -0.14661 | 109.40317 | 14 ft | 0 kts | 338° |
| 2026-05-07 05:41 | -0.14656 | 109.40314 | 14 ft | 1 kts | 339° |
| 2026-05-07 05:41 | -0.14634 | 109.40306 | 14 ft | 4 kts | 337° |
| 2026-05-07 05:41 | -0.14596 | 109.40290 | 14 ft | 7 kts | 337° |
| 2026-05-07 05:42 | -0.14541 | 109.40267 | 13 ft | 9 kts | 338° |
| 2026-05-07 05:42 | -0.14472 | 109.40240 | 13 ft | 11 kts | 338° |
| 2026-05-07 05:42 | -0.14422 | 109.40214 | 12 ft | 3 kts | 299° |
| 2026-05-07 05:42 | -0.14421 | 109.40213 | 12 ft | 0 kts | 293° |
| 2026-05-07 05:47 | -0.14419 | 109.40205 | 12 ft | 3 kts | 278° |
| 2026-05-07 05:47 | -0.14433 | 109.40153 | 12 ft | 11 kts | 270° |
| 2026-05-07 05:47 | -0.14353 | 109.40095 | 11 ft | 17 kts | 339° |
| 2026-05-07 05:48 | -0.14225 | 109.40038 | 11 ft | 19 kts | 319° |
| 2026-05-07 05:48 | -0.14149 | 109.40002 | 11 ft | 6 kts | 60° |
| 2026-05-07 05:48 | -0.14161 | 109.40016 | 11 ft | 0 kts | 156° |
| 2026-05-07 05:48 | -0.14163 | 109.40017 | 11 ft | 0 kts | 156° |
| 2026-05-07 05:50 | -0.14269 | 109.40060 | 12 ft | 52 kts | 158° |
| 2026-05-07 05:50 | -0.14876 | 109.40307 | 15 ft | 128 kts | 157° |
| 2026-05-07 05:51 | -0.15896 | 109.40720 | 150 ft | 174 kts | 158° |
| 2026-05-07 05:51 | -0.17051 | 109.41158 | 760 ft | 182 kts | 163° |
| 2026-05-07 05:51 | -0.18337 | 109.41254 | 1461 ft | 189 kts | 191° |
| 2026-05-07 05:51 | -0.19529 | 109.40745 | 2167 ft | 186 kts | 209° |
| 2026-05-07 05:52 | -0.20702 | 109.40067 | 2547 ft | 199 kts | 208° |
| 2026-05-07 05:52 | -0.21991 | 109.39415 | 2894 ft | 215 kts | 203° |
| 2026-05-07 05:52 | -0.23467 | 109.38806 | 3175 ft | 237 kts | 200° |
| 2026-05-07 05:52 | -0.25091 | 109.38207 | 3586 ft | 255 kts | 199° |
| 2026-05-07 05:53 | -0.26859 | 109.37596 | 4014 ft | 272 kts | 198° |
| 2026-05-07 05:53 | -0.28702 | 109.36983 | 4653 ft | 280 kts | 198° |
| 2026-05-07 05:53 | -0.30579 | 109.36370 | 5414 ft | 282 kts | 198° |
| 2026-05-07 05:53 | -0.32471 | 109.35758 | 6173 ft | 285 kts | 197° |
| 2026-05-07 05:54 | -0.34388 | 109.35143 | 6916 ft | 288 kts | 197° |
| 2026-05-07 05:54 | -0.36299 | 109.34532 | 7657 ft | 290 kts | 197° |
| 2026-05-07 05:54 | -0.38229 | 109.33916 | 8368 ft | 293 kts | 197° |
| 2026-05-07 05:54 | -0.40203 | 109.33286 | 9065 ft | 296 kts | 197° |
| 2026-05-07 05:55 | -0.42165 | 109.32661 | 9751 ft | 299 kts | 197° |
| 2026-05-07 05:55 | -0.44193 | 109.32013 | 10370 ft | 304 kts | 197° |
| 2026-05-07 05:55 | -0.46274 | 109.31350 | 10701 ft | 320 kts | 197° |
| 2026-05-07 05:55 | -0.48492 | 109.30643 | 10981 ft | 336 kts | 197° |
| 2026-05-07 05:56 | -0.50777 | 109.29916 | 11262 ft | 352 kts | 197° |
| 2026-05-07 05:56 | -0.53210 | 109.29142 | 11531 ft | 368 kts | 197° |
| 2026-05-07 05:56 | -0.55764 | 109.28329 | 11799 ft | 381 kts | 197° |
| 2026-05-07 05:56 | -0.58330 | 109.27512 | 12307 ft | 387 kts | 197° |
| 2026-05-07 05:57 | -0.60925 | 109.26684 | 12875 ft | 390 kts | 197° |
| 2026-05-07 05:57 | -0.63575 | 109.25839 | 13442 ft | 393 kts | 197° |
| 2026-05-07 05:57 | -0.66223 | 109.24997 | 13975 ft | 396 kts | 196° |
| 2026-05-07 05:57 | -0.68882 | 109.24150 | 14480 ft | 399 kts | 197° |
| 2026-05-07 05:58 | -0.71574 | 109.23293 | 14987 ft | 402 kts | 197° |
| 2026-05-07 05:58 | -0.74286 | 109.22429 | 15483 ft | 405 kts | 196° |
| 2026-05-07 05:58 | -0.77019 | 109.21558 | 15954 ft | 408 kts | 196° |
| 2026-05-07 05:58 | -0.79747 | 109.20689 | 16407 ft | 411 kts | 196° |
| 2026-05-07 05:59 | -0.82528 | 109.19802 | 16860 ft | 415 kts | 196° |
| 2026-05-07 05:59 | -0.85346 | 109.18904 | 17317 ft | 417 kts | 196° |
| 2026-05-07 05:59 | -0.88138 | 109.18014 | 17731 ft | 421 kts | 196° |
| 2026-05-07 05:59 | -0.90970 | 109.17111 | 18145 ft | 424 kts | 196° |
| 2026-05-07 06:00 | -0.93864 | 109.16189 | 18551 ft | 427 kts | 196° |
| 2026-05-07 06:00 | -0.96746 | 109.15270 | 18957 ft | 430 kts | 196° |
| 2026-05-07 06:00 | -0.99648 | 109.14345 | 19372 ft | 432 kts | 196° |
| 2026-05-07 06:00 | -1.02543 | 109.13422 | 19778 ft | 434 kts | 195° |
| 2026-05-07 06:01 | -1.05514 | 109.12476 | 20178 ft | 437 kts | 195° |
| 2026-05-07 06:01 | -1.08437 | 109.11543 | 20565 ft | 439 kts | 195° |
| 2026-05-07 06:01 | -1.11410 | 109.10596 | 20938 ft | 441 kts | 195° |
| 2026-05-07 06:01 | -1.14395 | 109.09650 | 21287 ft | 444 kts | 195° |
| 2026-05-07 06:02 | -1.17424 | 109.08688 | 21634 ft | 446 kts | 195° |
| 2026-05-07 06:02 | -1.20406 | 109.07742 | 21958 ft | 449 kts | 195° |
| 2026-05-07 06:02 | -1.23448 | 109.06776 | 22290 ft | 452 kts | 195° |
| 2026-05-07 06:02 | -1.26521 | 109.05801 | 22632 ft | 454 kts | 195° |
| 2026-05-07 06:03 | -1.29588 | 109.04828 | 22978 ft | 456 kts | 195° |
| 2026-05-07 06:03 | -1.32643 | 109.03856 | 23311 ft | 458 kts | 195° |
| 2026-05-07 06:03 | -1.35766 | 109.02861 | 23631 ft | 460 kts | 195° |
| 2026-05-07 06:03 | -1.38848 | 109.01879 | 23953 ft | 462 kts | 195° |
| 2026-05-07 06:04 | -1.41979 | 109.00880 | 24261 ft | 464 kts | 195° |
| 2026-05-07 06:04 | -1.45122 | 108.99879 | 24556 ft | 466 kts | 195° |
| 2026-05-07 06:04 | -1.48243 | 108.98885 | 24841 ft | 468 kts | 195° |
| 2026-05-07 06:04 | -1.51390 | 108.97881 | 25136 ft | 470 kts | 195° |
| 2026-05-07 06:05 | -1.54588 | 108.96860 | 25422 ft | 472 kts | 195° |
| 2026-05-07 06:05 | -1.57724 | 108.95861 | 25697 ft | 474 kts | 195° |
| 2026-05-07 06:05 | -1.60954 | 108.94831 | 25965 ft | 475 kts | 196° |
| 2026-05-07 06:05 | -1.64120 | 108.93821 | 26218 ft | 477 kts | 196° |
| 2026-05-07 06:06 | -1.67359 | 108.92789 | 26484 ft | 479 kts | 196° |
| 2026-05-07 06:06 | -1.70587 | 108.91759 | 26719 ft | 480 kts | 196° |
| 2026-05-07 06:06 | -1.73820 | 108.90727 | 26931 ft | 482 kts | 196° |
| 2026-05-07 06:06 | -1.77093 | 108.89683 | 27140 ft | 484 kts | 196° |
| 2026-05-07 06:07 | -1.80376 | 108.88635 | 27351 ft | 486 kts | 196° |
| 2026-05-07 06:07 | -1.83647 | 108.87592 | 27550 ft | 488 kts | 196° |
| 2026-05-07 06:07 | -1.86936 | 108.86543 | 27828 ft | 487 kts | 196° |
| 2026-05-07 06:07 | -1.90230 | 108.85492 | 28150 ft | 486 kts | 196° |
| 2026-05-07 06:08 | -1.93507 | 108.84447 | 28461 ft | 485 kts | 196° |
| 2026-05-07 06:08 | -1.96761 | 108.83408 | 28777 ft | 483 kts | 196° |
| 2026-05-07 06:08 | -1.99992 | 108.82376 | 29096 ft | 482 kts | 196° |
| 2026-05-07 06:08 | -2.02180 | 108.81677 | 29317 ft | 481 kts | 196° |
| 2026-05-07 06:09 | -2.06532 | 108.80286 | 29745 ft | 480 kts | 196° |
| 2026-05-07 06:09 | -2.09741 | 108.79261 | 30066 ft | 479 kts | 196° |
| 2026-05-07 06:09 | -2.12985 | 108.78226 | 30371 ft | 478 kts | 196° |
| 2026-05-07 06:09 | -2.16192 | 108.77206 | 30651 ft | 478 kts | 196° |
| 2026-05-07 06:10 | -2.19444 | 108.76170 | 30945 ft | 478 kts | 196° |
| 2026-05-07 06:10 | -2.22637 | 108.75153 | 31232 ft | 477 kts | 196° |
| 2026-05-07 06:10 | -2.25863 | 108.74123 | 31526 ft | 477 kts | 196° |
| 2026-05-07 06:10 | -2.29077 | 108.73094 | 31798 ft | 476 kts | 196° |
| 2026-05-07 06:11 | -2.32300 | 108.72063 | 32057 ft | 476 kts | 196° |
| 2026-05-07 06:11 | -2.35488 | 108.71042 | 32317 ft | 476 kts | 196° |
| 2026-05-07 06:11 | -2.38739 | 108.70075 | 32607 ft | 474 kts | 191° |
| 2026-05-07 06:11 | -2.42041 | 108.69636 | 32925 ft | 470 kts | 180° |
| 2026-05-07 06:12 | -2.45317 | 108.69795 | 33255 ft | 465 kts | 169° |
| 2026-05-07 06:12 | -2.48425 | 108.70503 | 33574 ft | 461 kts | 160° |
| 2026-05-07 06:12 | -2.51384 | 108.71739 | 33878 ft | 458 kts | 149° |
| 2026-05-07 06:12 | -2.54094 | 108.73468 | 34169 ft | 454 kts | 140° |
| 2026-05-07 06:13 | -2.56466 | 108.75636 | 34455 ft | 451 kts | 130° |
| 2026-05-07 06:13 | -2.58578 | 108.78033 | 34745 ft | 450 kts | 129° |
| 2026-05-07 06:13 | -2.60633 | 108.80438 | 34989 ft | 450 kts | 128° |
| 2026-05-07 06:13 | -2.62686 | 108.82847 | 35180 ft | 451 kts | 129° |
| 2026-05-07 06:14 | -2.64781 | 108.85292 | 35348 ft | 452 kts | 129° |
| 2026-05-07 06:14 | -2.66866 | 108.87717 | 35512 ft | 453 kts | 129° |
| 2026-05-07 06:14 | -2.68940 | 108.90123 | 35665 ft | 454 kts | 129° |
| 2026-05-07 06:14 | -2.71050 | 108.92568 | 35807 ft | 455 kts | 129° |
| 2026-05-07 06:15 | -2.73167 | 108.95017 | 35948 ft | 456 kts | 129° |
| 2026-05-07 06:15 | -2.75270 | 108.97450 | 36092 ft | 457 kts | 129° |
| 2026-05-07 06:15 | -2.77388 | 108.99899 | 36235 ft | 457 kts | 129° |
| 2026-05-07 06:15 | -2.79496 | 109.02337 | 36371 ft | 458 kts | 129° |
| 2026-05-07 06:16 | -2.81613 | 109.04787 | 36497 ft | 458 kts | 129° |
| 2026-05-07 06:16 | -2.83725 | 109.07230 | 36617 ft | 459 kts | 129° |
| 2026-05-07 06:16 | -2.85849 | 109.09686 | 36724 ft | 459 kts | 129° |
| 2026-05-07 06:17 | -2.90120 | 109.14627 | 36781 ft | 460 kts | 129° |
| 2026-05-07 06:17 | -2.94346 | 109.19537 | 36786 ft | 460 kts | 129° |
| 2026-05-07 06:18 | -2.98592 | 109.24472 | 36785 ft | 460 kts | 129° |
| 2026-05-07 06:18 | -3.02857 | 109.29429 | 36789 ft | 460 kts | 129° |
| 2026-05-07 06:19 | -3.07104 | 109.34364 | 36792 ft | 460 kts | 129° |
| 2026-05-07 06:19 | -3.11328 | 109.39267 | 36790 ft | 460 kts | 129° |
| 2026-05-07 06:20 | -3.15594 | 109.44189 | 36791 ft | 459 kts | 129° |
| 2026-05-07 06:20 | -3.19806 | 109.49066 | 36791 ft | 459 kts | 129° |
| 2026-05-07 06:21 | -3.24068 | 109.54015 | 36791 ft | 460 kts | 129° |
| 2026-05-07 06:21 | -3.28289 | 109.58925 | 36791 ft | 460 kts | 129° |
| 2026-05-07 06:22 | -3.32534 | 109.63860 | 36791 ft | 460 kts | 129° |
| 2026-05-07 06:22 | -3.38894 | 109.71291 | 36791 ft | 459 kts | 129° |
| 2026-05-07 06:23 | -3.43120 | 109.76224 | 36790 ft | 460 kts | 129° |
| 2026-05-07 06:23 | -3.47372 | 109.81176 | 36790 ft | 461 kts | 129° |
| 2026-05-07 06:24 | -3.51613 | 109.86114 | 36788 ft | 461 kts | 129° |
| 2026-05-07 06:24 | -3.55866 | 109.91066 | 36783 ft | 460 kts | 129° |
| 2026-05-07 06:25 | -3.60081 | 109.95973 | 36781 ft | 460 kts | 129° |
| 2026-05-07 06:25 | -3.64330 | 110.00921 | 36783 ft | 460 kts | 129° |
| 2026-05-07 06:26 | -3.68596 | 110.05887 | 36785 ft | 460 kts | 129° |
| 2026-05-07 06:26 | -3.72843 | 110.10832 | 36787 ft | 461 kts | 129° |
| 2026-05-07 06:27 | -3.77094 | 110.15781 | 36787 ft | 461 kts | 130° |
| 2026-05-07 06:27 | -3.81329 | 110.20706 | 36787 ft | 461 kts | 130° |
| 2026-05-07 06:28 | -3.85602 | 110.25684 | 36787 ft | 461 kts | 130° |
| 2026-05-07 06:28 | -3.89842 | 110.30629 | 36789 ft | 461 kts | 130° |
| 2026-05-07 06:29 | -3.94086 | 110.35578 | 36790 ft | 461 kts | 130° |
| 2026-05-07 06:29 | -3.98244 | 110.40642 | 36791 ft | 461 kts | 127° |
| 2026-05-07 06:30 | -4.02231 | 110.45801 | 36790 ft | 461 kts | 127° |
| 2026-05-07 06:30 | -4.06193 | 110.50937 | 36791 ft | 461 kts | 127° |
| 2026-05-07 06:31 | -4.10180 | 110.56104 | 36791 ft | 461 kts | 127° |
| 2026-05-07 06:31 | -4.14185 | 110.61260 | 36791 ft | 461 kts | 127° |
| 2026-05-07 06:32 | -4.18203 | 110.66444 | 36791 ft | 461 kts | 127° |
| 2026-05-07 06:32 | -4.22191 | 110.71635 | 36792 ft | 462 kts | 127° |
| 2026-05-07 06:33 | -4.26157 | 110.76791 | 36794 ft | 463 kts | 127° |
| 2026-05-07 06:33 | -4.30155 | 110.81976 | 36797 ft | 462 kts | 127° |
| 2026-05-07 06:34 | -4.34136 | 110.87141 | 36798 ft | 463 kts | 127° |
| 2026-05-07 06:34 | -4.38125 | 110.92317 | 36801 ft | 463 kts | 127° |
| 2026-05-07 06:35 | -4.42119 | 110.97502 | 36798 ft | 463 kts | 127° |
| 2026-05-07 06:35 | -4.46113 | 111.02687 | 36798 ft | 463 kts | 127° |
| 2026-05-07 06:36 | -4.50084 | 111.07845 | 36795 ft | 464 kts | 127° |
| 2026-05-07 06:36 | -4.54100 | 111.13061 | 36791 ft | 465 kts | 127° |
| 2026-05-07 06:37 | -4.58257 | 111.18147 | 36791 ft | 465 kts | 132° |
| 2026-05-07 06:37 | -4.62977 | 111.22696 | 36790 ft | 465 kts | 139° |
| 2026-05-07 06:38 | -4.68233 | 111.26620 | 36790 ft | 465 kts | 147° |
| 2026-05-07 06:38 | -4.73892 | 111.29981 | 36791 ft | 466 kts | 150° |
| 2026-05-07 06:39 | -4.79593 | 111.33245 | 36791 ft | 466 kts | 150° |
| 2026-05-07 06:39 | -4.85332 | 111.36538 | 36791 ft | 466 kts | 150° |
| 2026-05-07 06:40 | -4.91028 | 111.39812 | 36791 ft | 467 kts | 150° |
| 2026-05-07 06:40 | -4.96737 | 111.43098 | 36792 ft | 467 kts | 150° |
| 2026-05-07 06:41 | -5.02461 | 111.46395 | 36791 ft | 467 kts | 150° |
| 2026-05-07 06:41 | -5.08195 | 111.49699 | 36791 ft | 467 kts | 150° |
| 2026-05-07 06:42 | -5.13922 | 111.52991 | 36793 ft | 467 kts | 150° |
| 2026-05-07 06:42 | -5.19659 | 111.56281 | 36793 ft | 467 kts | 150° |
| 2026-05-07 06:43 | -5.25375 | 111.59568 | 36796 ft | 467 kts | 150° |
| 2026-05-07 06:43 | -5.31115 | 111.62875 | 36798 ft | 467 kts | 150° |
| 2026-05-07 06:44 | -5.36854 | 111.66189 | 36806 ft | 467 kts | 149° |
| 2026-05-07 06:44 | -5.42549 | 111.69505 | 36810 ft | 467 kts | 150° |
| 2026-05-07 06:45 | -5.48253 | 111.72813 | 36812 ft | 468 kts | 150° |
| 2026-05-07 06:45 | -5.53997 | 111.76135 | 36810 ft | 467 kts | 150° |
| 2026-05-07 06:46 | -5.56862 | 111.77788 | 36692 ft | 463 kts | 150° |
| 2026-05-07 06:46 | -5.59683 | 111.79417 | 36174 ft | 460 kts | 150° |
| 2026-05-07 06:46 | -5.62495 | 111.81038 | 35280 ft | 462 kts | 150° |
| 2026-05-07 06:46 | -5.65318 | 111.82667 | 34287 ft | 464 kts | 150° |
| 2026-05-07 06:47 | -5.68148 | 111.84300 | 33301 ft | 467 kts | 150° |
| 2026-05-07 06:47 | -5.71025 | 111.85961 | 32293 ft | 469 kts | 150° |
| 2026-05-07 06:47 | -5.73873 | 111.87608 | 31300 ft | 473 kts | 150° |
| 2026-05-07 06:47 | -5.76796 | 111.89298 | 30390 ft | 473 kts | 150° |
| 2026-05-07 06:48 | -5.79649 | 111.90948 | 29574 ft | 472 kts | 150° |
| 2026-05-07 06:48 | -5.82541 | 111.92619 | 28722 ft | 472 kts | 150° |
| 2026-05-07 06:48 | -5.85443 | 111.94295 | 27916 ft | 471 kts | 150° |
| 2026-05-07 06:48 | -5.88329 | 111.95960 | 27097 ft | 470 kts | 150° |
| 2026-05-07 06:49 | -5.91166 | 111.97598 | 26574 ft | 463 kts | 150° |
| 2026-05-07 06:49 | -5.93980 | 111.99223 | 26029 ft | 458 kts | 150° |
| 2026-05-07 06:49 | -5.96767 | 112.00832 | 25460 ft | 454 kts | 150° |
| 2026-05-07 06:49 | -5.99530 | 112.02429 | 24894 ft | 450 kts | 149° |
| 2026-05-07 06:50 | -6.02293 | 112.04027 | 24318 ft | 447 kts | 149° |
| 2026-05-07 06:50 | -6.05001 | 112.05592 | 23756 ft | 444 kts | 149° |
| 2026-05-07 06:50 | -6.07728 | 112.07170 | 23181 ft | 442 kts | 149° |
| 2026-05-07 06:50 | -6.10410 | 112.08721 | 22610 ft | 439 kts | 149° |
| 2026-05-07 06:51 | -6.13097 | 112.10268 | 22038 ft | 437 kts | 149° |
| 2026-05-07 06:51 | -6.15768 | 112.11807 | 21477 ft | 435 kts | 149° |
| 2026-05-07 06:51 | -6.18436 | 112.13348 | 20926 ft | 432 kts | 149° |
| 2026-05-07 06:51 | -6.21083 | 112.14877 | 20381 ft | 429 kts | 149° |
| 2026-05-07 06:52 | -6.23677 | 112.16379 | 19853 ft | 425 kts | 149° |
| 2026-05-07 06:52 | -6.26271 | 112.17880 | 19326 ft | 422 kts | 149° |
| 2026-05-07 06:52 | -6.28853 | 112.19376 | 18797 ft | 418 kts | 149° |
| 2026-05-07 06:52 | -6.31390 | 112.20847 | 18276 ft | 415 kts | 149° |
| 2026-05-07 06:53 | -6.33925 | 112.22315 | 17748 ft | 412 kts | 149° |
| 2026-05-07 06:53 | -6.36446 | 112.23776 | 17214 ft | 408 kts | 149° |
| 2026-05-07 06:53 | -6.38938 | 112.25222 | 16686 ft | 406 kts | 149° |
| 2026-05-07 06:53 | -6.41410 | 112.26656 | 16147 ft | 403 kts | 149° |
| 2026-05-07 06:54 | -6.43842 | 112.28066 | 15625 ft | 400 kts | 149° |
| 2026-05-07 06:54 | -6.46302 | 112.29491 | 15091 ft | 397 kts | 149° |
| 2026-05-07 06:54 | -6.48697 | 112.30878 | 14586 ft | 394 kts | 149° |
| 2026-05-07 06:54 | -6.51118 | 112.32278 | 14060 ft | 391 kts | 149° |
| 2026-05-07 06:55 | -6.53483 | 112.33647 | 13558 ft | 387 kts | 149° |
| 2026-05-07 06:55 | -6.55851 | 112.35020 | 13049 ft | 384 kts | 149° |
| 2026-05-07 06:55 | -6.58201 | 112.36382 | 12532 ft | 381 kts | 149° |
| 2026-05-07 06:55 | -6.60524 | 112.37729 | 12006 ft | 379 kts | 149° |
| 2026-05-07 06:56 | -6.62831 | 112.39067 | 11478 ft | 377 kts | 149° |
| 2026-05-07 06:56 | -6.65083 | 112.40375 | 11248 ft | 364 kts | 148° |
| 2026-05-07 06:56 | -6.67286 | 112.41654 | 11104 ft | 350 kts | 148° |
| 2026-05-07 06:56 | -6.69389 | 112.42876 | 10981 ft | 336 kts | 148° |
| 2026-05-07 06:57 | -6.71407 | 112.44048 | 10876 ft | 322 kts | 148° |
| 2026-05-07 06:57 | -6.73317 | 112.45157 | 10792 ft | 308 kts | 148° |
| 2026-05-07 06:57 | -6.75171 | 112.46234 | 10726 ft | 295 kts | 148° |
| 2026-05-07 06:57 | -6.76995 | 112.47141 | 10644 ft | 284 kts | 159° |
| 2026-05-07 06:58 | -6.78927 | 112.47597 | 10369 ft | 281 kts | 171° |
| 2026-05-07 06:58 | -6.80910 | 112.47835 | 10058 ft | 280 kts | 172° |
| 2026-05-07 06:58 | -6.82869 | 112.48040 | 9746 ft | 278 kts | 173° |
| 2026-05-07 06:58 | -6.84837 | 112.48251 | 9444 ft | 276 kts | 172° |
| 2026-05-07 06:59 | -6.86753 | 112.48464 | 9153 ft | 274 kts | 172° |
| 2026-05-07 06:59 | -6.88703 | 112.48687 | 8854 ft | 272 kts | 171° |
| 2026-05-07 06:59 | -6.90607 | 112.48908 | 8566 ft | 269 kts | 171° |
| 2026-05-07 06:59 | -6.92483 | 112.49128 | 8276 ft | 267 kts | 171° |
| 2026-05-07 07:00 | -6.94356 | 112.49348 | 7988 ft | 265 kts | 171° |
| 2026-05-07 07:00 | -6.96217 | 112.49567 | 7702 ft | 263 kts | 171° |
| 2026-05-07 07:00 | -6.98076 | 112.49785 | 7422 ft | 260 kts | 171° |
| 2026-05-07 07:00 | -6.99902 | 112.49993 | 7417 ft | 263 kts | 171° |
| 2026-05-07 07:01 | -7.01772 | 112.50205 | 7425 ft | 264 kts | 171° |
| 2026-05-07 07:01 | -7.03631 | 112.50415 | 7427 ft | 265 kts | 171° |
| 2026-05-07 07:01 | -7.05493 | 112.50623 | 7429 ft | 265 kts | 171° |
| 2026-05-07 07:01 | -7.07361 | 112.50835 | 7257 ft | 267 kts | 171° |
| 2026-05-07 07:02 | -7.09225 | 112.51045 | 6956 ft | 265 kts | 171° |
| 2026-05-07 07:02 | -7.11079 | 112.51254 | 6661 ft | 263 kts | 171° |
| 2026-05-07 07:02 | -7.12947 | 112.51464 | 6377 ft | 261 kts | 171° |
| 2026-05-07 07:02 | -7.14783 | 112.51670 | 6100 ft | 259 kts | 171° |
| 2026-05-07 07:03 | -7.16580 | 112.51873 | 5827 ft | 257 kts | 171° |
| 2026-05-07 07:03 | -7.18389 | 112.52079 | 5548 ft | 255 kts | 171° |
| 2026-05-07 07:03 | -7.20167 | 112.52283 | 5272 ft | 253 kts | 171° |
| 2026-05-07 07:03 | -7.21955 | 112.52488 | 4993 ft | 251 kts | 171° |
| 2026-05-07 07:04 | -7.23710 | 112.52688 | 4721 ft | 249 kts | 171° |
| 2026-05-07 07:04 | -7.25460 | 112.52888 | 4450 ft | 247 kts | 171° |
| 2026-05-07 07:04 | -7.27206 | 112.53085 | 4180 ft | 246 kts | 171° |
| 2026-05-07 07:04 | -7.28930 | 112.53281 | 3916 ft | 244 kts | 172° |
| 2026-05-07 07:05 | -7.30634 | 112.53474 | 3654 ft | 242 kts | 171° |
| 2026-05-07 07:05 | -7.32319 | 112.53714 | 3486 ft | 241 kts | 161° |
| 2026-05-07 07:05 | -7.33734 | 112.54601 | 3423 ft | 238 kts | 128° |
| 2026-05-07 07:05 | -7.34429 | 112.56122 | 3104 ft | 235 kts | 99° |
| 2026-05-07 07:06 | -7.34650 | 112.57758 | 2832 ft | 232 kts | 97° |
| 2026-05-07 07:06 | -7.34886 | 112.59386 | 2625 ft | 227 kts | 98° |
| 2026-05-07 07:06 | -7.35125 | 112.60939 | 2610 ft | 213 kts | 98° |
| 2026-05-07 07:06 | -7.35351 | 112.62380 | 2584 ft | 202 kts | 99° |
| 2026-05-07 07:07 | -7.35576 | 112.63792 | 2504 ft | 200 kts | 99° |
| 2026-05-07 07:07 | -7.35795 | 112.65157 | 2301 ft | 192 kts | 99° |
| 2026-05-07 07:07 | -7.36005 | 112.66469 | 2025 ft | 180 kts | 99° |
| 2026-05-07 07:07 | -7.36200 | 112.67683 | 1801 ft | 166 kts | 99° |
| 2026-05-07 07:08 | -7.36380 | 112.68797 | 1576 ft | 154 kts | 99° |
| 2026-05-07 07:08 | -7.36549 | 112.69841 | 1378 ft | 148 kts | 99° |
| 2026-05-07 07:08 | -7.36708 | 112.70817 | 1219 ft | 148 kts | 98° |
| 2026-05-07 07:08 | -7.36874 | 112.71841 | 1046 ft | 147 kts | 98° |
| 2026-05-07 07:09 | -7.37040 | 112.72866 | 876 ft | 142 kts | 98° |
| 2026-05-07 07:09 | -7.37193 | 112.73813 | 672 ft | 132 kts | 98° |
| 2026-05-07 07:09 | -7.37344 | 112.74741 | 512 ft | 131 kts | 99° |
| 2026-05-07 07:09 | -7.37497 | 112.75653 | 353 ft | 132 kts | 98° |
| 2026-05-07 07:10 | -7.37639 | 112.76579 | 185 ft | 131 kts | 99° |
| 2026-05-07 07:10 | -7.37789 | 112.77490 | 42 ft | 130 kts | 99° |
| 2026-05-07 07:10 | -7.37929 | 112.78346 | 11 ft | 105 kts | 99° |
| 2026-05-07 07:10 | -7.38019 | 112.78906 | 10 ft | 54 kts | 99° |
| 2026-05-07 07:11 | -7.38048 | 112.79189 | 8 ft | 27 kts | 78° |
| 2026-05-07 07:11 | -7.37989 | 112.79365 | 8 ft | 22 kts | 60° |
| 2026-05-07 07:11 | -7.37868 | 112.79421 | 8 ft | 18 kts | 8° |
| 2026-05-07 07:11 | -7.37737 | 112.79443 | 8 ft | 18 kts | 11° |
| 2026-05-07 07:12 | -7.37614 | 112.79462 | 8 ft | 9 kts | 9° |
| 2026-05-07 07:12 | -7.37593 | 112.79466 | 8 ft | 0 kts | 9° |